Candor, North Carolina
Current Conditions -  °F | °C
As of 5:35 AM on Wednesday 22 Oct 2014 (Local Time) from KSOP Reporting Station
Clear Clear  
Wind Chill: 44°   Ceiling: Unl
Heat Index: 48°   Visibility: 10mi
Dew Point: 36°   Wind: 9mph
Humidity: 62%   Direction: 350°N
Pressure: 29.95"   Gusts: NA
Location:  35.3°N, 79.75°W
Report Text: KSOP 220935Z AUTO 35008KT 320V020 10SM CLR 09/02 A2995 RMK AO1
Loading
Personal Weather Stations






























Interactive Weather Map New forecast layout! Learn more

10-Day Weather Forecast

Advertisements
Track Severe Weather on mobile